createdAt,value
2019-01-15T00:00:29.699Z,2.00
2019-01-15T00:02:56.855Z,1.90
2019-01-15T00:05:23.850Z,1.90
2019-01-15T00:07:50.929Z,2.00
2019-01-15T00:10:18.559Z,1.90
2019-01-15T00:12:46.290Z,1.90
2019-01-15T00:15:13.294Z,1.90
2019-01-15T00:17:40.234Z,2.00
2019-01-15T00:20:08.076Z,1.90
2019-01-15T00:22:34.960Z,1.80
2019-01-15T00:25:02.290Z,1.80
2019-01-15T00:27:29.255Z,1.90
2019-01-15T00:29:56.061Z,2.00
2019-01-15T00:32:22.925Z,2.00
2019-01-15T00:34:50.182Z,2.00
2019-01-15T00:37:16.957Z,2.00
2019-01-15T00:39:44.121Z,1.90
2019-01-15T00:42:15.280Z,1.80
2019-01-15T00:44:39.695Z,1.90
2019-01-15T00:47:06.690Z,1.80
2019-01-15T00:49:33.822Z,1.70
2019-01-15T00:52:00.699Z,1.80
2019-01-15T00:54:27.814Z,1.80
2019-01-15T00:56:54.688Z,1.90
2019-01-15T00:59:21.682Z,1.80
2019-01-15T01:01:48.682Z,1.80
2019-01-15T01:04:15.661Z,1.80
2019-01-15T01:06:42.950Z,1.90
2019-01-15T01:09:10.905Z,1.90
2019-01-15T01:11:38.158Z,1.90
2019-01-15T01:14:05.278Z,1.90
2019-01-15T01:16:32.518Z,1.90
2019-01-15T01:18:59.643Z,1.90
2019-01-15T01:21:26.541Z,1.80
2019-01-15T01:23:53.407Z,1.90
2019-01-15T01:26:20.468Z,1.90
2019-01-15T01:28:47.532Z,1.90
2019-01-15T01:31:14.313Z,1.80
2019-01-15T01:33:41.518Z,1.80
2019-01-15T01:36:08.497Z,1.80
2019-01-15T01:38:35.568Z,1.80
2019-01-15T01:41:02.561Z,1.80
2019-01-15T01:43:29.694Z,1.80
2019-01-15T01:45:56.565Z,1.80
2019-01-15T01:48:23.376Z,1.80
2019-01-15T01:50:50.160Z,1.90
2019-01-15T01:53:17.354Z,1.80
2019-01-15T01:55:44.464Z,1.80
2019-01-15T01:58:11.592Z,1.80
2019-01-15T02:00:38.678Z,1.80
2019-01-15T02:03:05.561Z,1.90
2019-01-15T02:05:32.432Z,1.80
2019-01-15T02:07:59.229Z,1.80
2019-01-15T02:10:26.505Z,1.80
2019-01-15T02:12:53.573Z,1.80
2019-01-15T02:15:23.926Z,1.70
2019-01-15T02:17:51.167Z,1.80
2019-01-15T02:20:18.531Z,1.80
2019-01-15T02:22:45.410Z,1.80
2019-01-15T02:25:12.710Z,1.80
2019-01-15T02:27:42.641Z,1.80
2019-01-15T02:30:12.093Z,1.80
2019-01-15T02:32:39.248Z,1.90
2019-01-15T02:35:06.420Z,1.80
2019-01-15T02:37:33.325Z,1.80
2019-01-15T02:40:00.230Z,1.90
2019-01-15T02:42:27.534Z,1.80
2019-01-15T02:44:54.437Z,1.80
2019-01-15T02:47:21.721Z,1.80
2019-01-15T02:49:48.631Z,1.80
2019-01-15T02:52:15.750Z,1.80
2019-01-15T02:54:42.631Z,1.90
2019-01-15T02:57:09.734Z,1.90
2019-01-15T02:59:36.606Z,1.80
2019-01-15T03:02:04.229Z,1.90
2019-01-15T03:04:31.138Z,2.00
2019-01-15T03:06:58.004Z,1.90
2019-01-15T03:09:24.781Z,1.80
2019-01-15T03:11:51.546Z,1.80
2019-01-15T03:14:18.449Z,1.90
2019-01-15T03:16:45.242Z,1.90
2019-01-15T03:19:12.150Z,1.90
2019-01-15T03:21:39.634Z,1.90
2019-01-15T03:24:06.940Z,1.80
2019-01-15T03:26:33.805Z,1.80
2019-01-15T03:29:00.706Z,1.80
2019-01-15T03:31:27.699Z,1.80
2019-01-15T03:33:54.674Z,1.70
2019-01-15T03:36:21.577Z,1.80
2019-01-15T03:38:48.359Z,1.80
2019-01-15T03:41:15.134Z,2.30
2019-01-15T03:43:41.990Z,1.80
2019-01-15T03:46:08.789Z,1.70
2019-01-15T03:48:35.653Z,1.70
2019-01-15T03:51:02.652Z,1.80
2019-01-15T03:53:29.522Z,1.70
2019-01-15T03:55:56.524Z,1.70
2019-01-15T03:58:23.409Z,1.70
2019-01-15T04:00:50.289Z,1.80
2019-01-15T04:03:17.166Z,1.70
2019-01-15T04:05:44.228Z,1.80
2019-01-15T04:08:11.423Z,1.70
2019-01-15T04:10:38.335Z,1.70
2019-01-15T04:13:11.212Z,1.80
2019-01-15T04:15:34.035Z,1.70
2019-01-15T04:18:00.784Z,1.60
2019-01-15T04:20:27.787Z,1.50
2019-01-15T04:22:55.056Z,1.50
2019-01-15T04:25:22.078Z,1.60
2019-01-15T04:27:48.842Z,1.50
2019-01-15T04:30:17.971Z,1.50
2019-01-15T04:32:45.048Z,1.60
2019-01-15T04:35:12.137Z,1.70
2019-01-15T04:37:39.169Z,1.70
2019-01-15T04:40:07.939Z,1.70
2019-01-15T04:42:34.709Z,1.70
2019-01-15T04:45:01.935Z,1.70
2019-01-15T04:47:28.932Z,1.70
2019-01-15T04:49:55.816Z,1.80
2019-01-15T04:52:23.413Z,1.70
2019-01-15T04:54:50.325Z,1.70
2019-01-15T04:57:17.569Z,1.70
2019-01-15T04:59:44.665Z,1.80
2019-01-15T05:02:11.532Z,1.70
2019-01-15T05:04:38.410Z,1.70
2019-01-15T05:07:05.492Z,1.70
2019-01-15T05:09:32.358Z,1.70
2019-01-15T05:11:59.465Z,1.70
2019-01-15T05:14:26.638Z,1.70
2019-01-15T05:16:53.437Z,1.70
2019-01-15T05:19:20.430Z,1.70
2019-01-15T05:21:47.284Z,1.80
2019-01-15T05:24:14.163Z,1.70
2019-01-15T05:26:41.654Z,1.80
2019-01-15T05:29:08.668Z,1.80
2019-01-15T05:31:41.361Z,1.70
2019-01-15T05:34:23.687Z,1.70
2019-01-15T05:36:50.897Z,1.80
2019-01-15T05:39:17.784Z,1.80
2019-01-15T05:41:44.543Z,1.80
2019-01-15T05:44:11.326Z,1.80
2019-01-15T05:46:38.202Z,1.80
2019-01-15T05:49:05.089Z,1.80
2019-01-15T05:51:42.037Z,1.80
2019-01-15T05:54:08.938Z,1.80
2019-01-15T05:56:35.798Z,1.70
2019-01-15T05:59:02.669Z,1.70
2019-01-15T06:01:29.432Z,1.70
2019-01-15T06:03:56.424Z,1.70
2019-01-15T06:06:23.172Z,1.70
2019-01-15T06:08:49.941Z,1.70
2019-01-15T06:11:16.804Z,1.60
2019-01-15T06:13:43.734Z,1.70
2019-01-15T06:16:10.604Z,1.60
2019-01-15T06:18:37.590Z,1.60
2019-01-15T06:21:04.465Z,1.60
2019-01-15T06:23:32.039Z,1.70
2019-01-15T06:25:59.045Z,1.70
2019-01-15T06:28:26.664Z,1.70
2019-01-15T06:30:53.637Z,1.70
2019-01-15T06:33:20.818Z,1.70
2019-01-15T06:35:47.670Z,1.70
2019-01-15T06:38:14.664Z,1.60
2019-01-15T06:40:41.936Z,1.60
2019-01-15T06:43:08.878Z,1.70
2019-01-15T06:45:35.750Z,1.70
2019-01-15T06:48:03.135Z,1.70
2019-01-15T06:50:30.125Z,1.60
2019-01-15T06:52:57.016Z,1.60
2019-01-15T06:55:24.028Z,1.60
2019-01-15T06:57:50.991Z,1.70
2019-01-15T07:00:20.369Z,1.70
2019-01-15T07:02:47.473Z,1.70
2019-01-15T07:05:14.649Z,1.70
2019-01-15T07:07:41.885Z,1.70
2019-01-15T07:10:11.513Z,1.70
2019-01-15T07:12:38.376Z,1.70
2019-01-15T07:15:05.591Z,1.70
2019-01-15T07:17:32.432Z,1.70
2019-01-15T07:19:59.228Z,1.70
2019-01-15T07:22:26.324Z,1.80
2019-01-15T07:24:53.318Z,1.80
2019-01-15T07:27:20.301Z,1.70
2019-01-15T07:29:47.409Z,1.80
2019-01-15T07:32:14.296Z,1.80
2019-01-15T07:34:41.216Z,1.70
2019-01-15T07:37:08.087Z,1.70
2019-01-15T07:39:34.840Z,1.70
2019-01-15T07:42:01.834Z,2.20
2019-01-15T07:44:28.724Z,1.80
2019-01-15T07:46:56.287Z,1.80
2019-01-15T07:49:23.085Z,1.80
2019-01-15T07:51:49.964Z,1.80
2019-01-15T07:54:16.719Z,1.90
2019-01-15T07:56:43.700Z,1.90
2019-01-15T07:59:10.573Z,1.90
2019-01-15T08:01:37.673Z,1.80
2019-01-15T08:04:04.644Z,1.90
2019-01-15T08:06:31.628Z,1.80
2019-01-15T08:08:58.863Z,1.90
2019-01-15T08:11:25.666Z,1.90
2019-01-15T08:13:52.681Z,2.00
2019-01-15T08:16:19.841Z,0.70
2019-01-15T08:18:46.856Z,2.00
2019-01-15T08:21:14.057Z,2.10
2019-01-15T08:23:40.808Z,2.10
2019-01-15T08:26:07.824Z,2.20
2019-01-15T08:28:34.809Z,2.30
2019-01-15T08:31:01.572Z,2.40
2019-01-15T08:33:28.454Z,2.50
2019-01-15T08:35:55.332Z,2.50
2019-01-15T08:38:22.228Z,2.40
2019-01-15T08:40:49.513Z,2.50
2019-01-15T08:43:16.293Z,2.50
2019-01-15T08:45:43.180Z,2.70
2019-01-15T08:48:15.617Z,2.60
2019-01-15T08:50:42.702Z,2.70
2019-01-15T08:53:10.077Z,2.70
2019-01-15T08:55:37.027Z,2.70
2019-01-15T08:58:04.172Z,2.80
2019-01-15T09:00:31.037Z,2.80
2019-01-15T09:02:58.112Z,2.90
2019-01-15T09:05:24.888Z,2.90
2019-01-15T09:07:52.004Z,2.90
2019-01-15T09:10:18.967Z,2.70
2019-01-15T09:12:45.938Z,2.80
2019-01-15T09:15:13.905Z,2.70
2019-01-15T09:17:40.968Z,2.90
2019-01-15T09:20:13.347Z,2.90
2019-01-15T09:22:40.588Z,2.80
2019-01-15T09:25:07.564Z,2.80
2019-01-15T09:27:34.420Z,2.80
2019-01-15T09:30:01.529Z,2.90
2019-01-15T09:32:28.657Z,2.90
2019-01-15T09:34:55.558Z,2.90
2019-01-15T09:37:22.788Z,3.00
2019-01-15T09:39:49.923Z,3.10
2019-01-15T09:42:16.997Z,3.00
2019-01-15T09:44:44.328Z,3.00
2019-01-15T09:47:11.193Z,3.00
2019-01-15T09:49:38.197Z,3.00
2019-01-15T09:52:13.024Z,3.00
2019-01-15T09:54:34.628Z,3.10
2019-01-15T09:57:01.509Z,3.00
2019-01-15T09:59:28.405Z,3.10
2019-01-15T10:01:55.394Z,3.00
2019-01-15T10:04:22.777Z,3.00
2019-01-15T10:06:49.530Z,3.00
2019-01-15T10:09:16.533Z,3.10
2019-01-15T10:11:43.492Z,3.00
2019-01-15T10:14:10.460Z,3.10
2019-01-15T10:16:37.448Z,3.00
2019-01-15T10:19:04.333Z,3.20
2019-01-15T10:21:31.217Z,3.30
2019-01-15T10:23:57.996Z,3.30
2019-01-15T10:26:24.781Z,3.30
2019-01-15T10:28:51.757Z,3.40
2019-01-15T10:32:10.504Z,3.40
2019-01-15T10:34:37.804Z,3.40
2019-01-15T10:37:03.970Z,3.50
2019-01-15T10:39:30.749Z,3.40
2019-01-15T10:41:57.737Z,3.40
2019-01-15T10:44:24.701Z,3.40
2019-01-15T10:46:51.588Z,3.30
2019-01-15T10:49:18.468Z,3.30
2019-01-15T10:51:45.258Z,3.30
2019-01-15T10:54:12.525Z,3.30
2019-01-15T10:56:39.440Z,3.30
2019-01-15T10:59:06.673Z,3.30
2019-01-15T11:01:33.654Z,3.40
2019-01-15T11:04:00.455Z,3.60
2019-01-15T11:06:27.362Z,3.70
2019-01-15T11:08:54.388Z,3.80
2019-01-15T11:11:21.448Z,3.90
2019-01-15T11:13:48.584Z,4.00
2019-01-15T11:16:15.374Z,4.30
2019-01-15T11:18:42.311Z,4.20
2019-01-15T11:21:09.320Z,4.10
2019-01-15T11:23:36.080Z,4.20
2019-01-15T11:26:03.345Z,4.10
2019-01-15T11:28:30.477Z,4.10
2019-01-15T11:30:57.372Z,4.20
2019-01-15T11:33:24.137Z,4.40
2019-01-15T11:35:51.180Z,4.40
2019-01-15T11:38:18.373Z,4.20
2019-01-15T11:40:45.238Z,4.30
2019-01-15T11:43:12.224Z,4.40
2019-01-15T11:45:39.189Z,4.50
2019-01-15T11:48:06.461Z,4.60
2019-01-15T11:50:33.407Z,4.50
2019-01-15T11:53:00.423Z,4.40
2019-01-15T11:55:27.561Z,4.50
2019-01-15T11:57:54.597Z,4.60
2019-01-15T12:00:32.426Z,4.40
2019-01-15T12:03:04.415Z,4.20
2019-01-15T12:05:45.573Z,4.20
2019-01-15T12:08:22.903Z,4.40
2019-01-15T12:11:18.501Z,4.60
2019-01-15T12:14:04.931Z,4.90
2019-01-15T12:17:06.130Z,5.00
2019-01-15T12:19:50.832Z,4.70
2019-01-15T12:22:35.808Z,4.70
2019-01-15T12:25:21.421Z,4.70
2019-01-15T12:28:20.077Z,4.70
2019-01-15T12:31:08.061Z,4.70
2019-01-15T12:33:44.872Z,4.60
2019-01-15T12:36:34.416Z,4.50
2019-01-15T12:39:27.125Z,4.50
2019-01-15T12:42:12.367Z,4.50
2019-01-15T12:45:07.750Z,4.50
2019-01-15T12:48:03.379Z,4.60
2019-01-15T12:50:41.885Z,4.60
2019-01-15T12:53:28.544Z,4.50
2019-01-15T12:56:29.701Z,4.40
2019-01-15T12:59:25.443Z,4.40
2019-01-15T13:02:11.994Z,4.40
2019-01-15T13:05:01.200Z,4.30
2019-01-15T13:07:47.813Z,4.30
2019-01-15T13:10:45.180Z,4.30
2019-01-15T13:13:30.069Z,4.20
2019-01-15T13:16:15.075Z,4.20
2019-01-15T13:19:05.089Z,4.10
2019-01-15T13:21:48.196Z,4.10
2019-01-15T13:24:26.918Z,4.10
2019-01-15T13:27:12.593Z,4.10
2019-01-15T13:29:55.315Z,4.00
2019-01-15T13:32:38.320Z,4.10
2019-01-15T13:35:25.154Z,4.00
2019-01-15T13:38:10.440Z,4.00
2019-01-15T13:40:49.417Z,4.00
2019-01-15T13:43:34.319Z,4.10
2019-01-15T13:46:14.662Z,4.10
2019-01-15T13:48:59.833Z,4.10
2019-01-15T13:51:44.779Z,4.10
2019-01-15T13:54:34.061Z,4.10
2019-01-15T13:57:20.885Z,3.70
2019-01-15T14:00:00.985Z,4.10
2019-01-15T14:02:38.214Z,4.10
2019-01-15T14:05:24.088Z,4.10
2019-01-15T14:08:03.064Z,4.10
2019-01-15T14:10:48.597Z,4.20
2019-01-15T14:13:33.615Z,4.20
2019-01-15T14:16:20.289Z,4.20
2019-01-15T14:19:01.681Z,4.20
2019-01-15T14:21:48.433Z,4.20
2019-01-15T14:24:43.789Z,4.30
2019-01-15T14:27:24.201Z,4.30
2019-01-15T14:30:19.330Z,4.30
2019-01-15T14:33:04.449Z,4.20
2019-01-15T14:35:59.921Z,4.30
2019-01-15T14:39:01.681Z,4.30
2019-01-15T14:41:51.446Z,4.20
2019-01-15T14:44:45.559Z,4.30
2019-01-15T14:47:31.030Z,4.40
2019-01-15T14:50:15.584Z,4.40
2019-01-15T14:53:05.228Z,4.30
2019-01-15T14:55:53.853Z,4.40
2019-01-15T14:58:58.103Z,4.40
2019-01-15T15:01:56.291Z,4.30
2019-01-15T15:04:41.505Z,4.30
2019-01-15T15:07:19.248Z,4.30
2019-01-15T15:09:59.944Z,4.30
2019-01-15T15:12:58.265Z,4.30
2019-01-15T15:15:52.576Z,4.30
2019-01-15T15:18:45.369Z,4.30
2019-01-15T15:21:32.022Z,4.30
2019-01-15T15:24:16.106Z,4.30
2019-01-15T15:27:04.530Z,4.30
2019-01-15T15:29:56.908Z,4.30
2019-01-15T15:32:37.604Z,4.40
2019-01-15T15:35:35.340Z,4.40
2019-01-15T15:38:13.913Z,4.40
2019-01-15T15:41:00.001Z,4.30
2019-01-15T15:43:39.123Z,4.30
2019-01-15T15:46:28.616Z,4.40
2019-01-15T15:49:17.936Z,4.50
2019-01-15T15:52:22.181Z,4.40
2019-01-15T15:54:59.825Z,4.30
2019-01-15T15:57:56.168Z,4.30
2019-01-15T16:00:39.206Z,4.30
2019-01-15T16:03:20.231Z,4.30
2019-01-15T16:06:14.407Z,4.20
2019-01-15T16:09:00.989Z,4.30
2019-01-15T16:11:49.537Z,4.30
2019-01-15T16:14:26.889Z,4.30
2019-01-15T16:17:06.968Z,4.30
2019-01-15T16:20:08.678Z,4.30
2019-01-15T16:22:44.322Z,4.30
2019-01-15T16:25:31.328Z,5.50
2019-01-15T16:28:17.868Z,4.30
2019-01-15T16:31:16.333Z,4.20
2019-01-15T16:33:55.163Z,4.30
2019-01-15T16:36:37.974Z,4.20
2019-01-15T16:39:21.357Z,4.20
2019-01-15T16:42:26.337Z,4.20
2019-01-15T16:45:11.249Z,4.20
2019-01-15T16:48:04.454Z,4.20
2019-01-15T16:50:50.161Z,4.30
2019-01-15T16:53:34.754Z,4.20
2019-01-15T16:56:14.635Z,4.20
2019-01-15T16:58:59.521Z,4.20
2019-01-15T17:01:40.713Z,4.20
2019-01-15T17:04:25.633Z,4.20
2019-01-15T17:07:16.069Z,4.30
2019-01-15T17:09:56.742Z,4.20
2019-01-15T17:12:41.364Z,4.20
2019-01-15T17:15:30.734Z,4.30
2019-01-15T17:18:11.372Z,4.80
2019-01-15T17:20:55.341Z,4.30
2019-01-15T17:23:40.880Z,4.20
2019-01-15T17:26:22.641Z,4.30
2019-01-15T17:29:07.989Z,4.30
2019-01-15T17:31:48.977Z,4.20
2019-01-15T17:34:28.420Z,3.40
2019-01-15T17:37:18.611Z,4.30
2019-01-15T17:40:12.813Z,4.30
2019-01-15T17:42:58.277Z,4.20
2019-01-15T17:45:56.970Z,4.20
2019-01-15T17:48:41.980Z,4.10
2019-01-15T17:51:28.516Z,4.10
2019-01-15T17:54:20.792Z,4.10
2019-01-15T17:57:03.722Z,4.10
2019-01-15T18:00:08.141Z,4.10
2019-01-15T18:03:03.533Z,4.10
2019-01-15T18:05:48.338Z,4.10
2019-01-15T18:08:43.348Z,4.10
2019-01-15T18:11:22.689Z,4.10
2019-01-15T18:14:15.741Z,4.10
2019-01-15T18:17:00.636Z,4.10
2019-01-15T18:19:36.715Z,4.10
2019-01-15T18:22:26.203Z,4.10
2019-01-15T18:25:10.880Z,4.10
2019-01-15T18:27:45.668Z,4.10
2019-01-15T18:30:27.182Z,4.20
2019-01-15T18:33:13.616Z,4.10
2019-01-15T18:36:05.705Z,4.20
2019-01-15T18:38:50.565Z,4.20
2019-01-15T18:41:43.236Z,4.20
2019-01-15T18:44:24.204Z,4.20
2019-01-15T18:47:02.810Z,4.20
2019-01-15T18:50:00.424Z,4.20
2019-01-15T18:52:41.022Z,4.20
2019-01-15T18:55:36.530Z,4.20
2019-01-15T18:58:24.498Z,4.20
2019-01-15T19:01:09.614Z,4.20
2019-01-15T19:03:56.120Z,4.20
2019-01-15T19:06:38.348Z,4.20
2019-01-15T19:09:23.861Z,4.20
2019-01-15T19:12:08.785Z,4.20
2019-01-15T19:14:47.270Z,4.10
2019-01-15T19:17:45.657Z,4.10
2019-01-15T19:20:30.820Z,4.10
2019-01-15T19:23:22.003Z,4.10
2019-01-15T19:26:08.891Z,4.10
2019-01-15T19:28:48.708Z,4.20
2019-01-15T19:31:34.451Z,4.10
2019-01-15T19:34:19.826Z,4.10
2019-01-15T19:36:54.628Z,4.20
2019-01-15T19:39:41.297Z,4.20
2019-01-15T19:42:45.940Z,4.20
2019-01-15T19:45:36.461Z,4.20
2019-01-15T19:48:18.169Z,4.20
2019-01-15T19:51:03.056Z,4.10
2019-01-15T19:53:58.045Z,4.20
2019-01-15T19:56:59.473Z,4.20
2019-01-15T19:59:44.378Z,4.20
2019-01-15T20:02:37.015Z,4.20
2019-01-15T20:05:21.179Z,4.10
2019-01-15T20:08:06.247Z,4.20
2019-01-15T20:10:55.916Z,4.20
2019-01-15T20:13:33.592Z,4.20
2019-01-15T20:16:34.247Z,4.20
2019-01-15T20:19:23.516Z,4.20
2019-01-15T20:22:11.690Z,4.20
2019-01-15T20:25:01.261Z,4.20
2019-01-15T20:27:47.085Z,4.20
2019-01-15T20:30:32.825Z,4.20
2019-01-15T20:33:28.146Z,4.20
2019-01-15T20:36:29.331Z,4.20
2019-01-15T20:39:15.929Z,4.30
2019-01-15T20:41:57.604Z,4.30
2019-01-15T20:44:49.991Z,4.30
2019-01-15T20:47:34.952Z,4.30
2019-01-15T20:50:33.317Z,4.30
2019-01-15T20:53:25.479Z,4.20
2019-01-15T20:56:12.032Z,4.30
2019-01-15T20:58:53.824Z,4.30
2019-01-15T21:01:34.792Z,4.30
2019-01-15T21:04:19.752Z,4.20
2019-01-15T21:07:13.452Z,4.30
2019-01-15T21:10:14.959Z,4.30
2019-01-15T21:12:59.817Z,4.20
2019-01-15T21:15:45.028Z,4.20
2019-01-15T21:18:29.848Z,4.30
2019-01-15T21:21:13.227Z,4.30
2019-01-15T21:23:58.417Z,4.30
2019-01-15T21:26:43.288Z,4.30
2019-01-15T21:29:25.371Z,4.30
2019-01-15T21:32:14.674Z,4.30
2019-01-15T21:34:59.670Z,4.30
2019-01-15T21:37:45.117Z,4.20
2019-01-15T21:40:25.456Z,4.30
2019-01-15T21:43:13.769Z,4.30
2019-01-15T21:45:59.105Z,4.30
2019-01-15T21:48:52.886Z,4.30
2019-01-15T21:51:51.237Z,4.30
2019-01-15T21:54:37.178Z,4.20
2019-01-15T21:57:10.057Z,4.20
2019-01-15T22:00:05.732Z,4.30
2019-01-15T22:02:50.545Z,4.30
2019-01-15T22:05:42.785Z,4.30
2019-01-15T22:08:39.296Z,4.20
2019-01-15T22:11:28.681Z,4.30
2019-01-15T22:14:13.832Z,4.30
2019-01-15T22:17:00.538Z,4.20
2019-01-15T22:20:01.934Z,4.30
2019-01-15T22:22:47.369Z,4.20
2019-01-15T22:25:34.366Z,4.30
2019-01-15T22:28:16.825Z,4.30
2019-01-15T22:31:18.448Z,4.30
2019-01-15T22:34:08.076Z,4.30
2019-01-15T22:36:54.710Z,4.30
2019-01-15T22:39:48.976Z,4.30
2019-01-15T22:42:35.062Z,4.30
2019-01-15T22:45:20.381Z,4.30
2019-01-15T22:48:05.424Z,4.30
2019-01-15T22:50:51.856Z,5.10
2019-01-15T22:53:33.455Z,4.20
2019-01-15T22:56:09.649Z,4.20
2019-01-15T22:58:56.165Z,4.20
2019-01-15T23:01:37.151Z,4.20
2019-01-15T23:04:26.664Z,4.20
2019-01-15T23:07:18.741Z,4.20
2019-01-15T23:10:14.670Z,4.20
2019-01-15T23:13:01.220Z,4.20
2019-01-15T23:15:47.799Z,4.20
2019-01-15T23:18:32.743Z,4.20
2019-01-15T23:21:25.110Z,4.10
2019-01-15T23:24:14.617Z,4.20
2019-01-15T23:26:49.348Z,4.20
2019-01-15T23:29:25.713Z,4.10
2019-01-15T23:32:10.968Z,4.10
2019-01-15T23:34:48.557Z,4.10
2019-01-15T23:37:23.825Z,4.10
2019-01-15T23:40:10.352Z,4.10
2019-01-15T23:43:15.069Z,4.10
2019-01-15T23:46:00.289Z,4.10
2019-01-15T23:48:37.178Z,4.10
2019-01-15T23:51:35.858Z,4.10
2019-01-15T23:54:32.002Z,4.00
2019-01-15T23:57:20.984Z,4.00
